createdAt,value
2018-01-15T00:01:59.475Z,39.92
2018-01-15T00:04:28.586Z,40.83
2018-01-15T00:06:54.552Z,42.95
2018-01-15T00:09:24.660Z,44.35
2018-01-15T00:11:50.602Z,50.88
2018-01-15T00:14:17.741Z,43.60
2018-01-15T00:16:43.729Z,42.25
2018-01-15T00:19:12.098Z,37.60
2018-01-15T00:21:38.117Z,34.35
2018-01-15T00:24:07.221Z,39.90
2018-01-15T00:26:33.209Z,38.80
2018-01-15T00:28:59.140Z,46.33
2018-01-15T00:31:25.156Z,47.23
2018-01-15T00:33:51.134Z,45.95
2018-01-15T00:36:18.579Z,43.83
2018-01-15T00:38:44.526Z,41.58
2018-01-15T00:41:14.110Z,40.10
2018-01-15T00:43:40.134Z,44.17
2018-01-15T00:46:07.838Z,41.33
2018-01-15T00:48:33.757Z,35.72
2018-01-15T00:51:04.178Z,45.07
2018-01-15T00:53:30.140Z,46.15
2018-01-15T00:55:57.570Z,45.10
2018-01-15T00:58:23.576Z,55.53
2018-01-15T01:00:53.142Z,43.80
2018-01-15T01:03:19.163Z,47.10
2018-01-15T01:05:45.151Z,50.40
2018-01-15T01:08:11.105Z,42.72
2018-01-15T01:10:37.115Z,49.27
2018-01-15T01:13:04.288Z,43.17
2018-01-15T01:15:30.291Z,43.58
2018-01-15T01:17:58.561Z,43.67
2018-01-15T01:20:24.504Z,47.58
2018-01-15T01:22:53.100Z,42.57
2018-01-15T01:25:19.077Z,54.45
2018-01-15T01:27:48.281Z,46.65
2018-01-15T01:30:14.212Z,46.78
2018-01-15T01:32:44.199Z,42.93
2018-01-15T01:35:10.157Z,39.55
2018-01-15T01:37:37.388Z,48.43
2018-01-15T01:40:03.411Z,49.88
2018-01-15T01:42:29.380Z,46.00
2018-01-15T01:44:55.414Z,52.65
2018-01-15T01:47:21.548Z,51.83
2018-01-15T01:49:49.293Z,45.70
2018-01-15T01:52:15.222Z,43.83
2018-01-15T01:54:44.845Z,55.43
2018-01-15T01:57:10.771Z,48.58
2018-01-15T01:59:38.939Z,43.00
2018-01-15T02:02:04.890Z,44.92
2018-01-15T02:04:34.609Z,47.07
2018-01-15T02:07:00.568Z,46.13
2018-01-15T02:09:29.820Z,48.50
2018-01-15T02:11:55.745Z,41.78
2018-01-15T02:14:22.815Z,51.03
2018-01-15T02:16:48.773Z,42.53
2018-01-15T02:19:14.691Z,48.00
2018-01-15T02:21:40.618Z,45.13
2018-01-15T02:24:06.527Z,48.27
2018-01-15T02:26:34.273Z,48.10
2018-01-15T02:29:00.220Z,43.03
2018-01-15T02:31:30.238Z,50.17
2018-01-15T02:33:56.247Z,53.28
2018-01-15T02:36:25.624Z,41.83
2018-01-15T02:38:51.593Z,42.20
2018-01-15T02:41:18.692Z,44.30
2018-01-15T02:43:44.611Z,45.35
2018-01-15T02:46:14.214Z,44.77
2018-01-15T02:48:40.191Z,45.00
2018-01-15T02:51:07.898Z,43.97
2018-01-15T02:53:33.943Z,46.00
2018-01-15T02:55:59.877Z,47.53
2018-01-15T02:58:25.873Z,44.30
2018-01-15T03:00:51.853Z,43.35
2018-01-15T03:03:19.536Z,43.67
2018-01-15T03:05:45.565Z,39.53
2018-01-15T03:08:14.330Z,47.20
2018-01-15T03:10:40.297Z,37.28
2018-01-15T03:13:08.890Z,43.95
2018-01-15T03:15:34.836Z,42.25
2018-01-15T03:18:03.632Z,51.00
2018-01-15T03:20:29.593Z,46.97
2018-01-15T03:22:58.982Z,49.30
2018-01-15T03:25:24.990Z,43.35
2018-01-15T03:27:54.954Z,40.08
2018-01-15T03:30:20.909Z,44.45
2018-01-15T03:32:46.872Z,44.43
2018-01-15T03:35:12.870Z,48.33
2018-01-15T03:37:38.861Z,46.05
2018-01-15T03:40:05.717Z,37.35
2018-01-15T03:42:31.691Z,41.28
2018-01-15T03:45:01.227Z,46.28
2018-01-15T03:47:27.241Z,49.25
2018-01-15T03:49:54.726Z,42.35
2018-01-15T03:52:20.688Z,47.15
2018-01-15T03:54:50.016Z,40.97
2018-01-15T03:57:15.962Z,42.08
2018-01-15T03:59:43.685Z,41.17
2018-01-15T04:02:09.669Z,40.40
2018-01-15T04:04:38.533Z,41.65
2018-01-15T04:07:04.481Z,41.78
2018-01-15T04:09:30.497Z,43.40
2018-01-15T04:11:56.529Z,46.47
2018-01-15T04:14:22.510Z,40.50
2018-01-15T04:16:50.181Z,39.17
2018-01-15T04:19:16.202Z,44.42
2018-01-15T04:21:45.981Z,43.90
2018-01-15T04:24:12.019Z,49.90
2018-01-15T04:26:39.949Z,55.97
2018-01-15T04:29:05.916Z,39.65
2018-01-15T04:31:35.165Z,40.75
2018-01-15T04:34:01.236Z,49.50
2018-01-15T04:36:29.672Z,45.15
2018-01-15T04:38:55.783Z,48.22
2018-01-15T04:41:25.557Z,50.58
2018-01-15T04:43:51.547Z,50.17
2018-01-15T04:46:17.512Z,44.92
2018-01-15T04:48:43.432Z,49.33
2018-01-15T04:51:09.408Z,50.33
2018-01-15T04:53:36.564Z,52.60
2018-01-15T04:56:02.539Z,47.97
2018-01-15T04:58:31.465Z,43.95
2018-01-15T05:00:57.443Z,42.42
2018-01-15T05:03:25.233Z,44.33
2018-01-15T05:05:51.202Z,52.38
2018-01-15T05:08:20.807Z,45.78
2018-01-15T05:10:46.837Z,57.88
2018-01-15T05:13:16.009Z,47.75
2018-01-15T05:15:41.980Z,46.17
2018-01-15T05:18:09.195Z,47.83
2018-01-15T05:20:35.171Z,51.25
2018-01-15T05:23:01.171Z,46.10
2018-01-15T05:25:27.132Z,45.12
2018-01-15T05:27:53.152Z,46.97
2018-01-15T05:30:22.019Z,43.03
2018-01-15T05:32:47.972Z,42.00
2018-01-15T05:35:15.775Z,40.20
2018-01-15T05:37:41.740Z,47.97
2018-01-15T05:40:10.144Z,48.87
2018-01-15T05:42:36.128Z,44.47
2018-01-15T05:45:06.685Z,35.38
2018-01-15T05:47:32.694Z,45.15
2018-01-15T05:50:00.475Z,45.53
2018-01-15T05:52:26.450Z,38.20
2018-01-15T05:54:56.369Z,41.03
2018-01-15T05:57:22.406Z,38.80
2018-01-15T05:59:48.418Z,41.05
2018-01-15T06:02:14.376Z,43.20
2018-01-15T06:04:40.324Z,45.93
2018-01-15T06:07:06.365Z,42.20
2018-01-15T06:09:32.308Z,42.35
2018-01-15T06:12:01.600Z,42.17
2018-01-15T06:14:27.602Z,42.95
2018-01-15T06:16:57.091Z,35.97
2018-01-15T06:19:23.069Z,41.35
2018-01-15T06:21:50.374Z,43.78
2018-01-15T06:24:16.336Z,39.83
2018-01-15T06:26:44.893Z,43.30
2018-01-15T06:29:10.820Z,41.22
2018-01-15T06:31:39.570Z,44.37
2018-01-15T06:34:05.546Z,44.30
2018-01-15T06:36:31.476Z,45.40
2018-01-15T06:38:57.430Z,39.57
2018-01-15T06:41:23.450Z,38.23
2018-01-15T06:43:52.998Z,45.33
2018-01-15T06:46:19.002Z,41.47
2018-01-15T06:48:46.549Z,50.80
2018-01-15T06:51:12.658Z,43.87
2018-01-15T06:53:42.124Z,42.88
2018-01-15T06:56:08.154Z,38.55
2018-01-15T06:58:37.718Z,39.03
2018-01-15T07:01:03.693Z,40.35
2018-01-15T07:03:31.205Z,51.03
2018-01-15T07:05:57.240Z,40.40
2018-01-15T07:08:25.440Z,42.42
2018-01-15T07:10:51.388Z,36.58
2018-01-15T07:13:17.454Z,40.57
2018-01-15T07:15:43.454Z,40.20
2018-01-15T07:18:09.471Z,40.83
2018-01-15T07:20:38.912Z,41.17
2018-01-15T07:23:04.880Z,38.47
2018-01-15T07:25:32.378Z,39.80
2018-01-15T07:27:58.325Z,45.22
2018-01-15T07:30:27.582Z,38.57
2018-01-15T07:32:53.586Z,35.88
2018-01-15T07:35:22.882Z,33.88
2018-01-15T07:37:48.881Z,37.75
2018-01-15T07:40:16.849Z,34.60
2018-01-15T07:42:42.779Z,43.35
2018-01-15T07:45:10.522Z,40.93
2018-01-15T07:47:36.537Z,30.70
2018-01-15T07:50:02.508Z,36.15
2018-01-15T07:52:28.496Z,33.50
2018-01-15T07:54:54.490Z,35.17
2018-01-15T07:57:22.258Z,30.10
2018-01-15T07:59:48.217Z,29.77
2018-01-15T08:02:17.282Z,36.00
2018-01-15T08:04:43.244Z,25.20
2018-01-15T08:07:12.389Z,25.53
2018-01-15T08:09:38.402Z,26.50
2018-01-15T08:12:07.906Z,27.92
2018-01-15T08:14:33.904Z,30.52
2018-01-15T08:17:01.267Z,24.05
2018-01-15T08:19:27.286Z,27.77
2018-01-15T08:21:57.001Z,23.67
2018-01-15T08:24:22.931Z,24.12
2018-01-15T08:26:48.916Z,41.63
2018-01-15T08:29:14.979Z,24.70
2018-01-15T08:31:40.973Z,26.02
2018-01-15T08:34:08.264Z,24.00
2018-01-15T08:36:34.268Z,23.95
2018-01-15T08:39:03.499Z,26.87
2018-01-15T08:41:29.484Z,28.92
2018-01-15T08:43:58.770Z,27.83
2018-01-15T08:46:24.778Z,26.73
2018-01-15T08:48:51.873Z,23.67
2018-01-15T08:51:17.857Z,25.88
2018-01-15T08:53:47.609Z,30.48
2018-01-15T08:56:13.540Z,23.98
2018-01-15T08:58:41.386Z,26.13
2018-01-15T09:01:07.360Z,26.15
2018-01-15T09:03:33.314Z,26.33
2018-01-15T09:05:59.315Z,28.30
2018-01-15T09:08:25.275Z,29.58
2018-01-15T09:10:54.236Z,23.40
2018-01-15T09:13:20.223Z,29.70
2018-01-15T09:15:47.963Z,31.17
2018-01-15T09:18:13.948Z,28.85
2018-01-15T09:20:42.461Z,26.35
2018-01-15T09:23:08.487Z,27.98
2018-01-15T09:25:37.801Z,36.20
2018-01-15T09:28:03.781Z,37.70
2018-01-15T09:30:31.993Z,28.65
2018-01-15T09:32:57.999Z,30.92
2018-01-15T09:35:27.561Z,32.47
2018-01-15T09:37:53.584Z,30.10
2018-01-15T09:40:19.571Z,36.83
2018-01-15T09:42:45.531Z,35.83
2018-01-15T09:45:11.582Z,42.97
2018-01-15T09:47:39.110Z,32.92
2018-01-15T09:50:05.136Z,39.70
2018-01-15T09:52:34.050Z,35.58
2018-01-15T09:55:00.079Z,34.28
2018-01-15T09:57:27.969Z,34.97
2018-01-15T09:59:53.932Z,32.60
2018-01-15T10:02:23.263Z,35.20
2018-01-15T10:04:49.208Z,32.72
2018-01-15T10:07:18.273Z,35.43
2018-01-15T10:09:44.299Z,39.95
2018-01-15T10:12:13.641Z,43.15
2018-01-15T10:14:39.634Z,33.58
2018-01-15T10:17:05.648Z,35.90
2018-01-15T10:19:31.678Z,39.67
2018-01-15T10:21:57.678Z,36.03
2018-01-15T10:24:23.644Z,33.72
2018-01-15T10:26:49.628Z,33.80
2018-01-15T10:29:19.462Z,35.45
2018-01-15T10:31:45.421Z,33.10
2018-01-15T10:34:13.951Z,37.33
2018-01-15T10:36:40.044Z,32.70
2018-01-15T10:39:08.822Z,35.33
2018-01-15T10:41:34.854Z,29.17
2018-01-15T10:44:04.146Z,33.88
2018-01-15T10:46:30.096Z,34.15
2018-01-15T10:48:57.362Z,40.87
2018-01-15T10:51:23.361Z,29.30
2018-01-15T10:53:49.349Z,36.33
2018-01-15T10:56:15.388Z,34.55
2018-01-15T10:58:41.389Z,28.33
2018-01-15T11:04:06.298Z,32.78
2018-01-15T11:06:32.285Z,37.22
2018-01-15T11:08:58.251Z,36.67
2018-01-15T11:11:24.237Z,26.53
2018-01-15T11:13:50.209Z,29.58
2018-01-15T11:16:16.154Z,35.63
2018-01-15T11:18:42.078Z,36.90
2018-01-15T11:21:07.990Z,33.40
2018-01-15T11:23:34.089Z,28.50
2018-01-15T11:26:00.132Z,29.70
2018-01-15T11:28:26.111Z,31.37
2018-01-15T11:30:52.098Z,30.70
2018-01-15T11:33:18.155Z,33.20
2018-01-15T11:35:44.150Z,32.35
2018-01-15T11:38:10.142Z,30.17
2018-01-15T11:40:36.072Z,27.65
2018-01-15T11:43:02.082Z,29.10
2018-01-15T11:45:28.113Z,29.83
2018-01-15T11:47:54.132Z,29.52
2018-01-15T11:50:20.125Z,32.35
2018-01-15T11:52:46.056Z,32.80
2018-01-15T11:55:11.984Z,36.43
2018-01-15T11:57:37.919Z,26.40
2018-01-15T12:00:03.865Z,29.30
2018-01-15T12:02:29.803Z,24.03
2018-01-15T12:04:55.806Z,36.93
2018-01-15T12:07:21.769Z,33.80
2018-01-15T12:09:47.756Z,28.43
2018-01-15T12:12:13.728Z,26.75
2018-01-15T12:14:39.741Z,30.03
2018-01-15T12:17:05.673Z,29.70
2018-01-15T12:19:35.399Z,29.60
2018-01-15T12:24:29.606Z,20.08
2018-01-15T12:26:55.609Z,28.60
2018-01-15T12:29:24.980Z,28.85
2018-01-15T12:31:50.965Z,26.60
2018-01-15T12:34:18.659Z,28.50
2018-01-15T12:36:44.671Z,33.03
2018-01-15T12:39:14.017Z,27.62
2018-01-15T12:41:40.028Z,31.30
2018-01-15T12:44:06.071Z,25.70
2018-01-15T12:46:32.076Z,27.92
2018-01-15T12:48:57.999Z,24.73
2018-01-15T12:51:25.468Z,24.53
2018-01-15T12:53:51.510Z,21.67
2018-01-15T12:56:21.384Z,25.75
2018-01-15T12:58:47.335Z,25.52
2018-01-15T13:01:15.152Z,26.83
2018-01-15T13:03:41.105Z,27.85
2018-01-15T13:06:10.210Z,31.80
2018-01-15T13:11:35.126Z,28.87
2018-01-15T13:14:01.162Z,30.33
2018-01-15T13:16:27.186Z,31.92
2018-01-15T13:18:53.149Z,26.60
2018-01-15T13:21:19.097Z,27.77
2018-01-15T13:23:45.059Z,28.90
2018-01-15T13:26:11.106Z,30.20
2018-01-15T13:28:37.083Z,30.45
2018-01-15T13:31:03.130Z,30.55
2018-01-15T13:33:29.119Z,34.00
2018-01-15T13:35:55.062Z,28.20
2018-01-15T13:38:21.073Z,30.53
2018-01-15T13:40:47.048Z,26.05
2018-01-15T13:43:13.044Z,27.75
2018-01-15T13:45:39.021Z,24.95
2018-01-15T13:48:05.010Z,28.23
2018-01-15T13:50:30.961Z,28.55
2018-01-15T13:52:56.986Z,21.43
2018-01-15T13:55:22.960Z,30.20
2018-01-15T13:57:48.959Z,29.98
2018-01-15T14:00:14.934Z,25.88
2018-01-15T14:02:40.904Z,29.25
2018-01-15T14:05:06.923Z,29.37
2018-01-15T14:07:32.935Z,29.35
2018-01-15T14:09:58.910Z,25.05
2018-01-15T14:12:24.915Z,26.98
2018-01-15T14:14:50.942Z,26.37
2018-01-15T14:17:16.912Z,26.15
2018-01-15T14:19:42.889Z,24.37
2018-01-15T14:22:08.850Z,26.25
2018-01-15T14:24:34.796Z,28.57
2018-01-15T14:27:00.798Z,25.30
2018-01-15T14:29:29.218Z,23.12
2018-01-15T14:31:55.274Z,22.40
2018-01-15T14:34:21.253Z,24.08
2018-01-15T14:36:47.270Z,23.95
2018-01-15T14:39:13.224Z,27.30
2018-01-15T14:41:42.772Z,28.37
2018-01-15T14:44:08.814Z,27.60
2018-01-15T14:46:35.939Z,30.88
2018-01-15T14:49:01.887Z,25.20
2018-01-15T14:51:31.288Z,19.10
2018-01-15T14:53:57.318Z,25.48
2018-01-15T14:56:26.578Z,32.83
2018-01-15T14:58:52.546Z,22.45
2018-01-15T15:01:19.920Z,22.17
2018-01-15T15:03:45.929Z,23.52
2018-01-15T15:06:15.025Z,22.67
2018-01-15T15:08:41.006Z,20.08
2018-01-15T15:11:06.983Z,28.77
2018-01-15T15:13:32.985Z,25.83
2018-01-15T15:15:58.993Z,24.35
2018-01-15T15:18:26.862Z,30.02
2018-01-15T15:20:52.902Z,25.90
2018-01-15T15:23:21.975Z,24.80
2018-01-15T15:25:47.967Z,21.55
2018-01-15T15:28:15.770Z,19.85
2018-01-15T15:30:41.772Z,22.50
2018-01-15T15:33:11.055Z,21.65
2018-01-15T15:35:37.022Z,21.37
2018-01-15T15:38:05.704Z,21.53
2018-01-15T15:40:31.671Z,24.98
2018-01-15T15:43:01.328Z,21.37
2018-01-15T15:45:27.237Z,19.55
2018-01-15T15:47:53.197Z,26.20
2018-01-15T15:50:19.181Z,22.47
2018-01-15T15:52:45.205Z,19.48
2018-01-15T15:55:11.497Z,23.80
2018-01-15T15:57:37.495Z,18.10
2018-01-15T16:00:06.860Z,23.33
2018-01-15T16:02:32.803Z,16.95
2018-01-15T16:05:02.587Z,19.67
2018-01-15T16:07:28.618Z,18.73
2018-01-15T16:09:56.166Z,24.95
2018-01-15T16:12:22.140Z,19.35
2018-01-15T16:14:51.201Z,17.77
2018-01-15T16:17:17.201Z,18.17
2018-01-15T16:19:46.108Z,21.15
2018-01-15T16:22:24.466Z,22.55
2018-01-15T16:24:50.461Z,26.27
2018-01-15T16:27:16.460Z,18.85
2018-01-15T16:29:42.446Z,21.92
2018-01-15T16:32:08.435Z,40.47
2018-01-15T16:34:34.513Z,116.23
2018-01-15T16:37:00.445Z,27.33
2018-01-15T16:39:26.478Z,18.47
2018-01-15T16:41:52.494Z,23.85
2018-01-15T16:44:18.471Z,16.30
2018-01-15T16:46:44.439Z,17.67
2018-01-15T16:49:10.426Z,35.93
2018-01-15T16:51:36.464Z,18.40
2018-01-15T16:54:02.450Z,13.95
2018-01-15T16:56:30.523Z,17.45
2018-01-15T16:58:56.514Z,23.02
2018-01-15T17:01:22.521Z,24.45
2018-01-15T17:03:48.550Z,55.83
2018-01-15T17:06:14.540Z,36.40
2018-01-15T17:08:43.527Z,17.92
2018-01-15T17:11:09.570Z,25.08
2018-01-15T17:13:37.183Z,19.62
2018-01-15T17:16:03.145Z,22.00
2018-01-15T17:18:33.047Z,20.10
2018-01-15T17:20:59.025Z,19.12
2018-01-15T17:23:27.055Z,18.60
2018-01-15T17:25:53.042Z,22.58
2018-01-15T17:28:22.096Z,18.55
2018-01-15T17:30:48.048Z,20.95
2018-01-15T17:33:15.966Z,25.77
2018-01-15T17:35:41.896Z,18.75
2018-01-15T17:38:07.843Z,20.43
2018-01-15T17:40:33.883Z,20.30
2018-01-15T17:42:59.890Z,18.25
2018-01-15T17:45:28.972Z,21.15
2018-01-15T17:47:54.922Z,18.60
2018-01-15T17:50:23.980Z,13.20
2018-01-15T17:52:49.993Z,18.98
2018-01-15T17:55:17.374Z,20.58
2018-01-15T17:57:43.414Z,20.15
2018-01-15T18:00:12.890Z,28.70
2018-01-15T18:02:38.873Z,26.35
2018-01-15T18:05:06.358Z,28.77
2018-01-15T18:07:32.414Z,23.87
2018-01-15T18:10:01.698Z,21.37
2018-01-15T18:12:27.687Z,25.67
2018-01-15T18:14:53.721Z,24.90
2018-01-15T18:17:19.724Z,26.05
2018-01-15T18:19:45.742Z,21.02
2018-01-15T18:22:13.078Z,35.42
2018-01-15T18:24:39.065Z,30.70
2018-01-15T18:27:08.762Z,22.20
2018-01-15T18:29:34.709Z,32.20
2018-01-15T18:32:02.604Z,30.40
2018-01-15T18:34:28.633Z,42.00
2018-01-15T18:36:58.283Z,32.47
2018-01-15T18:39:24.243Z,28.42
2018-01-15T18:41:51.619Z,29.63
2018-01-15T18:44:17.599Z,26.95
2018-01-15T18:46:47.145Z,25.48
2018-01-15T18:49:13.162Z,31.58
2018-01-15T18:51:39.104Z,26.27
2018-01-15T18:54:05.135Z,27.23
2018-01-15T18:56:31.116Z,36.30
2018-01-15T18:58:58.306Z,26.52
2018-01-15T19:01:24.229Z,33.85
2018-01-15T19:03:53.729Z,32.47
2018-01-15T19:06:19.668Z,27.77
2018-01-15T19:08:48.588Z,36.13
2018-01-15T19:11:14.573Z,46.92
2018-01-15T19:13:42.140Z,23.60
2018-01-15T19:16:08.141Z,22.73
2018-01-15T19:18:37.524Z,28.60
2018-01-15T19:21:03.509Z,31.65
2018-01-15T19:23:32.874Z,37.67
2018-01-15T19:25:58.854Z,33.03
2018-01-15T19:28:24.839Z,35.20
2018-01-15T19:30:50.823Z,35.53
2018-01-15T19:33:16.829Z,49.58
2018-01-15T19:35:49.403Z,30.48
2018-01-15T19:38:17.358Z,37.42
2018-01-15T19:40:43.436Z,33.70
2018-01-15T19:46:18.239Z,31.90
2018-01-15T19:48:50.314Z,34.00
2018-01-15T19:51:22.278Z,28.27
2018-01-15T19:53:54.355Z,33.95
2018-01-15T19:56:26.317Z,29.60
2018-01-15T20:02:01.282Z,27.83
2018-01-15T20:04:33.299Z,26.73
2018-01-15T20:07:05.359Z,28.02
2018-01-15T20:09:37.457Z,23.05
2018-01-15T20:12:03.488Z,23.33
2018-01-15T20:14:29.526Z,18.37
2018-01-15T20:16:55.515Z,25.48
2018-01-15T20:19:21.479Z,24.23
2018-01-15T20:21:47.498Z,18.43
2018-01-15T20:24:13.471Z,28.85
2018-01-15T20:26:39.430Z,21.95
2018-01-15T20:29:05.412Z,25.93
2018-01-15T20:31:31.388Z,29.87
2018-01-15T20:33:57.394Z,19.52
2018-01-15T20:36:23.348Z,17.60
2018-01-15T20:38:49.291Z,19.77
2018-01-15T20:41:15.255Z,17.47
2018-01-15T20:43:41.181Z,13.57
2018-01-15T20:46:07.177Z,17.43
2018-01-15T20:48:33.157Z,14.82
2018-01-15T20:50:59.140Z,14.27
2018-01-15T20:53:25.128Z,22.75
2018-01-15T20:55:51.050Z,17.90
2018-01-15T20:58:17.062Z,11.17
2018-01-15T21:00:43.091Z,17.12
2018-01-15T21:03:09.085Z,6.87
2018-01-15T21:05:34.991Z,7.68
2018-01-15T21:08:00.986Z,8.10
2018-01-15T21:10:26.945Z,6.53
2018-01-15T21:12:52.942Z,5.60
2018-01-15T21:15:18.955Z,3.78
2018-01-15T21:17:44.970Z,1.65
2018-01-15T21:20:10.944Z,1.70
2018-01-15T21:22:36.989Z,1.70
2018-01-15T21:25:03.014Z,2.28
2018-01-15T21:30:19.158Z,1.77
2018-01-15T21:32:45.126Z,1.10
2018-01-15T21:35:11.117Z,0.70
2018-01-15T21:37:37.075Z,0.93
2018-01-15T21:40:03.040Z,0.87
2018-01-15T21:42:29.122Z,0.87
2018-01-15T21:44:55.114Z,1.65
2018-01-15T21:47:25.408Z,2.17
2018-01-15T21:49:51.347Z,0.90
2018-01-15T21:52:17.322Z,1.23
2018-01-15T21:54:43.332Z,0.90
2018-01-15T21:57:09.379Z,1.10
2018-01-15T21:59:35.332Z,1.05
2018-01-15T22:02:01.374Z,1.10
2018-01-15T22:04:27.364Z,0.90
2018-01-15T22:06:53.310Z,1.52
2018-01-15T22:09:19.363Z,1.60
2018-01-15T22:11:45.386Z,1.70
2018-01-15T22:14:11.435Z,1.12
2018-01-15T22:16:37.410Z,2.12
2018-01-15T22:19:03.482Z,2.53
2018-01-15T22:21:29.511Z,1.62
2018-01-15T22:23:55.518Z,1.73
2018-01-15T22:26:21.458Z,1.73
2018-01-15T22:28:47.494Z,1.47
2018-01-15T22:31:13.427Z,1.45
2018-01-15T22:33:39.443Z,0.93
2018-01-15T22:36:05.430Z,0.80
2018-01-15T22:38:31.470Z,1.75
2018-01-15T22:40:57.492Z,0.70
2018-01-15T22:43:23.454Z,1.00
2018-01-15T22:45:49.440Z,1.47
2018-01-15T22:48:15.436Z,0.70
2018-01-15T22:50:41.441Z,0.80
2018-01-15T22:53:07.465Z,0.88
2018-01-15T22:55:33.438Z,0.73
2018-01-15T22:57:59.480Z,2.25
2018-01-15T23:00:25.468Z,1.10
2018-01-15T23:02:51.480Z,1.35
2018-01-15T23:05:17.505Z,0.82
2018-01-15T23:07:43.608Z,1.90
2018-01-15T23:10:09.534Z,4.60
2018-01-15T23:12:35.513Z,1.67
2018-01-15T23:15:05.353Z,0.70
2018-01-15T23:17:31.337Z,1.20
2018-01-15T23:20:00.399Z,1.92
2018-01-15T23:22:26.420Z,0.80
2018-01-15T23:24:54.342Z,1.20
2018-01-15T23:27:20.259Z,1.62
2018-01-15T23:29:46.290Z,0.80
2018-01-15T23:32:12.304Z,1.27
2018-01-15T23:34:38.367Z,0.80
2018-01-15T23:37:05.362Z,1.05
2018-01-15T23:39:31.470Z,1.75
2018-01-15T23:42:01.267Z,2.50
2018-01-15T23:44:27.249Z,0.80
2018-01-15T23:46:55.532Z,3.08
2018-01-15T23:49:21.579Z,0.82
2018-01-15T23:51:51.663Z,0.80
2018-01-15T23:54:30.258Z,0.93
2018-01-15T23:56:57.087Z,0.98
2018-01-15T23:59:23.052Z,2.15
